Time;durP1;ratioP1;P1;durP2;ratioP2;P2;SDS_P1;SDS_P2;PMS_P1;PMS_P2;Temp;Humidity;BMP_temperature;BMP_pressure;BME280_temperature;BME280_humidity;BME280_pressure;Samples;Min_cycle;Max_cycle;Signal;HPM_P1;HPM_P2
2022/10/05 06:32:20;;;;;;;5.32;4.15;;;;;;;;;;9959393;29;20660;-66
2022/10/05 06:37:22;;;;;;;5.00;4.15;;;;;;;;;;9942075;29;20388;-66
2022/10/05 06:42:30;;;;;;;5.63;5.00;;;;;;;;;;9959620;29;20076;-66
2022/10/05 06:47:51;;;;;;;6.90;5.47;;;;;;;;;;9967618;29;20112;-65
2022/10/05 06:53:25;;;;;;;7.03;4.97;;;;;;;;;;9931150;29;20550;-66
2022/10/05 06:58:31;;;;;;;7.10;4.22;;;;;;;;;;9942208;29;20053;-66
2022/10/05 07:03:39;;;;;;;8.13;4.82;;;;;;;;;;9943498;29;20185;-67
2022/10/05 07:08:46;;;;;;;12.35;5.75;;;;;;;;;;9943144;29;20063;-65
2022/10/05 07:13:59;;;;;;;4.80;4.28;;;;;;;;;;9942148;29;20451;-66
2022/10/05 07:19:03;;;;;;;9.25;5.18;;;;;;;;;;9959597;29;20073;-65
2022/10/05 07:24:05;;;;;;;6.85;4.82;;;;;;;;;;9942738;29;20430;-66
2022/10/05 07:29:16;;;;;;;6.10;4.35;;;;;;;;;;9942670;29;20057;-67
2022/10/05 07:34:22;;;;;;;7.80;4.50;;;;;;;;;;9942381;29;20102;-66
2022/10/05 07:39:24;;;;;;;6.55;4.18;;;;;;;;;;9942990;29;20060;-66
2022/10/05 07:44:45;;;;;;;5.65;4.20;;;;;;;;;;9959220;29;20507;-65
2022/10/05 07:49:47;;;;;;;4.93;3.70;;;;;;;;;;9958466;29;20092;-67
2022/10/05 07:54:47;;;;;;;6.75;4.53;;;;;;;;;;9959781;29;20115;-65
2022/10/05 07:59:52;;;;;;;4.45;3.83;;;;;;;;;;9946472;29;20079;-66
2022/10/05 08:05:00;;;;;;;5.10;3.83;;;;;;;;;;9949132;29;20044;-66
2022/10/05 08:10:03;;;;;;;5.07;3.33;;;;;;;;;;9965831;29;20095;-67
2022/10/05 08:15:05;;;;;;;9.18;3.55;;;;;;;;;;9949501;29;20052;-66
2022/10/05 08:20:14;;;;;;;6.90;4.15;;;;;;;;;;9966138;29;20076;-66
2022/10/05 08:25:19;;;;;;;4.97;4.38;;;;;;;;;;9948934;29;20088;-66
2022/10/05 08:30:17;;;;;;;10.05;4.03;;;;;;;;;;9964902;29;20089;-67
2022/10/05 08:35:22;;;;;;;11.25;7.45;;;;;;;;;;9965502;29;20080;-65
2022/10/05 08:40:45;;;;;;;5.45;3.97;;;;;;;;;;9965591;29;20095;-66
2022/10/05 08:46:01;;;;;;;4.05;3.70;;;;;;;;;;9951032;29;20120;-65
2022/10/05 08:51:09;;;;;;;4.70;3.50;;;;;;;;;;9965733;29;20099;-67
2022/10/05 08:56:22;;;;;;;4.88;3.50;;;;;;;;;;9963349;29;20118;-66
2022/10/05 09:01:31;;;;;;;6.07;4.03;;;;;;;;;;9964278;29;20126;-66
2022/10/05 09:06:49;;;;;;;4.05;3.30;;;;;;;;;;9977854;29;20423;-67
2022/10/05 09:11:57;;;;;;;5.90;4.25;;;;;;;;;;9962926;29;20076;-64
2022/10/05 09:16:58;;;;;;;6.03;5.43;;;;;;;;;;9963846;29;20099;-65
2022/10/05 09:21:57;;;;;;;8.15;4.10;;;;;;;;;;9963662;29;20087;-65
2022/10/05 09:27:02;;;;;;;4.65;3.65;;;;;;;;;;9963228;29;20084;-65
2022/10/05 09:32:08;;;;;;;4.72;3.50;;;;;;;;;;9963052;29;20092;-65
2022/10/05 09:37:31;;;;;;;9.93;3.42;;;;;;;;;;9962139;29;20088;-65
2022/10/05 09:42:47;;;;;;;6.10;3.90;;;;;;;;;;9953317;29;20539;-65
2022/10/05 09:47:58;;;;;;;7.75;4.20;;;;;;;;;;9962620;29;20099;-65
2022/10/05 09:53:04;;;;;;;6.07;3.55;;;;;;;;;;9946017;29;20088;-66
2022/10/05 09:58:27;;;;;;;5.85;3.35;;;;;;;;;;9962081;29;20083;-66
2022/10/05 10:03:43;;;;;;;6.18;3.35;;;;;;;;;;9961993;29;20530;-67
2022/10/05 10:08:56;;;;;;;6.68;3.33;;;;;;;;;;9961536;29;20048;-66
2022/10/05 10:14:04;;;;;;;3.67;2.92;;;;;;;;;;9959684;29;20072;-65
2022/10/05 10:19:18;;;;;;;6.82;3.08;;;;;;;;;;9960761;29;20372;-66
2022/10/05 10:24:20;;;;;;;4.93;3.13;;;;;;;;;;9961648;29;20099;-66
2022/10/05 10:29:42;;;;;;;7.00;3.50;;;;;;;;;;9961217;29;20087;-66
2022/10/05 10:34:59;;;;;;;4.18;3.28;;;;;;;;;;9961764;29;20087;-66
2022/10/05 10:40:12;;;;;;;4.55;2.95;;;;;;;;;;9961030;29;20048;-66
2022/10/05 10:45:22;;;;;;;8.02;3.97;;;;;;;;;;9961021;29;20142;-66
2022/10/05 10:50:42;;;;;;;6.45;4.03;;;;;;;;;;9960078;29;20088;-66
2022/10/05 10:55:47;;;;;;;7.00;3.42;;;;;;;;;;9959999;29;20084;-67
2022/10/05 11:00:53;;;;;;;4.45;3.15;;;;;;;;;;9960284;29;20053;-66
2022/10/05 11:06:03;;;;;;;6.28;3.80;;;;;;;;;;9959780;29;20063;-66
2022/10/05 11:11:23;;;;;;;8.95;3.78;;;;;;;;;;9942041;29;20080;-66
2022/10/05 11:16:32;;;;;;;7.18;3.72;;;;;;;;;;9959761;29;20094;-66
2022/10/05 11:21:35;;;;;;;3.88;3.30;;;;;;;;;;9959086;29;20088;-66
2022/10/05 11:26:42;;;;;;;6.63;3.20;;;;;;;;;;9958333;29;20087;-66
2022/10/05 11:31:49;;;;;;;11.07;3.40;;;;;;;;;;9958164;29;20512;-66
2022/10/05 11:37:05;;;;;;;7.63;3.33;;;;;;;;;;9958827;29;20096;-66
2022/10/05 11:42:17;;;;;;;8.30;2.95;;;;;;;;;;9958211;29;20059;-66
2022/10/05 11:47:19;;;;;;;6.53;3.42;;;;;;;;;;9958032;29;20077;-65
2022/10/05 11:52:21;;;;;;;5.22;2.75;;;;;;;;;;9957645;29;20087;-66
2022/10/05 11:57:24;;;;;;;4.75;3.30;;;;;;;;;;9958118;29;20076;-66
2022/10/05 12:02:40;;;;;;;3.03;2.40;;;;;;;;;;9958458;29;20088;-66
2022/10/05 12:07:46;;;;;;;3.22;2.10;;;;;;;;;;9958863;29;20434;-67
2022/10/05 12:12:51;;;;;;;3.70;2.27;;;;;;;;;;9957822;29;20079;-65
2022/10/05 12:17:55;;;;;;;2.25;1.98;;;;;;;;;;9958032;29;20091;-67
2022/10/05 12:22:57;;;;;;;1.73;1.60;;;;;;;;;;9957510;29;20091;-66
2022/10/05 12:28:02;;;;;;;5.05;1.55;;;;;;;;;;9957802;29;20154;-67
2022/10/05 12:33:04;;;;;;;5.55;2.53;;;;;;;;;;9957733;29;20470;-66
2022/10/05 12:38:07;;;;;;;5.10;2.30;;;;;;;;;;9940527;29;20048;-66
2022/10/05 12:43:11;;;;;;;4.72;1.63;;;;;;;;;;9958771;29;20080;-66
2022/10/05 12:48:19;;;;;;;1.45;1.33;;;;;;;;;;9964885;29;20048;-66
2022/10/05 12:53:23;;;;;;;2.58;1.58;;;;;;;;;;9964764;29;20525;-66
2022/10/05 12:58:28;;;;;;;2.47;1.90;;;;;;;;;;9947694;29;20052;-68
2022/10/05 13:03:30;;;;;;;6.20;2.60;;;;;;;;;;9963808;29;20052;-66
2022/10/05 13:08:33;;;;;;;3.78;2.35;;;;;;;;;;9977330;29;20072;-66
2022/10/05 13:13:39;;;;;;;5.45;2.05;;;;;;;;;;9963238;29;20523;-66
2022/10/05 13:18:43;;;;;;;4.00;2.50;;;;;;;;;;9962718;29;20196;-67
2022/10/05 13:23:45;;;;;;;5.82;2.53;;;;;;;;;;9963425;29;20072;-66
2022/10/05 13:28:50;;;;;;;5.22;2.33;;;;;;;;;;9963996;29;20434;-68
2022/10/05 13:34:03;;;;;;;4.55;2.25;;;;;;;;;;9962296;29;20095;-67
2022/10/05 13:39:04;;;;;;;5.22;2.58;;;;;;;;;;9962292;29;20088;-66
2022/10/05 13:44:10;;;;;;;5.07;2.40;;;;;;;;;;9962145;29;20367;-66
2022/10/05 13:49:17;;;;;;;6.20;2.00;;;;;;;;;;9945158;29;20055;-66
2022/10/05 13:54:19;;;;;;;6.47;2.33;;;;;;;;;;9961888;29;20518;-66
2022/10/05 13:59:30;;;;;;;4.88;2.30;;;;;;;;;;9961457;29;20084;-66
2022/10/05 14:04:29;;;;;;;2.55;1.67;;;;;;;;;;9961172;29;20095;-66
2022/10/05 14:09:29;;;;;;;4.72;3.20;;;;;;;;;;9961812;29;20049;-65
2022/10/05 14:14:30;;;;;;;3.60;2.00;;;;;;;;;;9945234;29;20087;-66
2022/10/05 14:19:31;;;;;;;1.98;1.60;;;;;;;;;;9961554;29;20131;-65
2022/10/05 14:24:31;;;;;;;3.03;1.90;;;;;;;;;;9961609;29;20083;-66
2022/10/05 14:29:52;;;;;;;2.00;1.73;;;;;;;;;;9961669;29;20080;-66
2022/10/05 14:34:56;;;;;;;4.40;1.80;;;;;;;;;;9960755;29;20084;-65
2022/10/05 14:39:57;;;;;;;5.67;2.63;;;;;;;;;;9960943;29;20091;-66
2022/10/05 14:45:11;;;;;;;3.83;1.70;;;;;;;;;;9960466;29;20069;-67
2022/10/05 14:50:15;;;;;;;9.95;3.00;;;;;;;;;;9960611;29;20088;-66
2022/10/05 14:55:29;;;;;;;4.53;2.75;;;;;;;;;;9960780;29;20169;-66
2022/10/05 15:00:32;;;;;;;3.22;2.13;;;;;;;;;;9960683;29;20084;-67
2022/10/05 15:05:33;;;;;;;4.47;1.58;;;;;;;;;;9960416;29;20091;-67
2022/10/05 15:10:36;;;;;;;3.03;2.30;;;;;;;;;;9959340;29;20083;-65
2022/10/05 15:15:38;;;;;;;8.70;2.90;;;;;;;;;;9960345;29;20479;-66
2022/10/05 15:20:42;;;;;;;7.60;5.30;;;;;;;;;;9960209;29;20099;-66
2022/10/05 15:25:45;;;;;;;6.20;3.00;;;;;;;;;;9948357;29;20372;-66
2022/10/05 15:30:51;;;;;;;8.43;4.03;;;;;;;;;;9959710;29;20052;-66
2022/10/05 15:35:59;;;;;;;7.50;3.20;;;;;;;;;;9959701;29;20088;-67
2022/10/05 15:41:00;;;;;;;6.53;3.22;;;;;;;;;;9960218;29;20062;-65
2022/10/05 15:46:05;;;;;;;7.45;5.10;;;;;;;;;;9959822;29;20083;-66
2022/10/05 15:51:09;;;;;;;7.97;4.72;;;;;;;;;;9958386;29;20090;-66
2022/10/05 15:56:10;;;;;;;5.22;4.30;;;;;;;;;;9942265;29;20091;-67
2022/10/05 16:01:12;;;;;;;5.18;3.05;;;;;;;;;;9958994;29;20446;-67
2022/10/05 16:11:55;;;;;;;14.38;4.25;;;;;;;;;;9959066;29;20620;-66
2022/10/05 16:16:59;;;;;;;7.95;3.80;;;;;;;;;;9944757;29;20095;-66
2022/10/05 16:22:01;;;;;;;7.10;5.50;;;;;;;;;;9963808;29;20087;-66
2022/10/05 16:27:00;;;;;;;8.02;3.78;;;;;;;;;;9965520;29;20084;-66
2022/10/05 16:32:03;;;;;;;7.40;4.22;;;;;;;;;;9964709;29;20118;-66
2022/10/05 16:37:08;;;;;;;7.97;4.13;;;;;;;;;;9947745;29;20063;-65
2022/10/05 16:42:12;;;;;;;17.55;8.43;;;;;;;;;;9965037;29;20056;-66
2022/10/05 16:47:28;;;;;;;5.05;3.78;;;;;;;;;;9933115;29;20412;-66
2022/10/05 16:52:27;;;;;;;6.70;3.17;;;;;;;;;;9964475;29;20127;-66
2022/10/05 16:57:28;;;;;;;6.47;4.18;;;;;;;;;;9959798;29;20123;-67
2022/10/05 17:02:42;;;;;;;13.55;8.07;;;;;;;;;;9964782;29;20078;-67
2022/10/05 17:07:54;;;;;;;9.63;7.25;;;;;;;;;;9977699;29;20052;-66
2022/10/05 17:12:58;;;;;;;10.18;8.10;;;;;;;;;;9963883;29;20080;-67
2022/10/05 17:18:06;;;;;;;11.30;8.13;;;;;;;;;;9950515;29;20088;-67
2022/10/05 17:23:36;;;;;;;6.43;5.22;;;;;;;;;;9963371;29;20072;-66
2022/10/05 17:28:39;;;;;;;6.38;3.60;;;;;;;;;;9960408;29;20092;-65
2022/10/05 17:33:53;;;;;;;4.60;3.25;;;;;;;;;;9962101;29;20088;-65
2022/10/05 17:39:11;;;;;;;10.02;6.53;;;;;;;;;;9961275;29;20096;-66
2022/10/05 17:44:29;;;;;;;10.70;7.03;;;;;;;;;;9959538;29;20100;-67
2022/10/05 17:55:24;;;;;;;9.40;5.32;;;;;;;;;;9950237;29;20056;-67
2022/10/05 17:55:30;;;;;;;3.88;3.00;;;;;;;;;;9963007;29;20111;-66
2022/10/05 18:00:42;;;;;;;4.70;3.00;;;;;;;;;;9962674;29;20057;-66
2022/10/05 18:05:42;;;;;;;3.72;2.90;;;;;;;;;;9961263;29;20095;-66
2022/10/05 18:11:02;;;;;;;3.33;2.97;;;;;;;;;;9975861;29;20053;-66
2022/10/05 18:16:00;;;;;;;6.47;2.90;;;;;;;;;;9962646;29;20107;-66
2022/10/05 18:21:22;;;;;;;9.45;2.97;;;;;;;;;;9960519;29;20541;-66
2022/10/05 18:26:30;;;;;;;7.85;3.17;;;;;;;;;;9950881;29;20080;-66
2022/10/05 18:31:32;;;;;;;11.82;3.20;;;;;;;;;;9965317;29;20099;-66
2022/10/05 18:36:38;;;;;;;2.67;2.10;;;;;;;;;;9960526;29;20083;-66
2022/10/05 18:41:46;;;;;;;3.65;2.33;;;;;;;;;;9972257;29;20080;-67
2022/10/05 18:46:47;;;;;;;8.10;2.83;;;;;;;;;;9960345;29;20166;-66
2022/10/05 18:51:48;;;;;;;4.93;2.17;;;;;;;;;;9960469;29;20080;-66
2022/10/05 18:56:53;;;;;;;3.22;2.47;;;;;;;;;;9960014;29;20101;-66
2022/10/05 19:01:58;;;;;;;4.47;2.72;;;;;;;;;;9959973;29;20087;-67
2022/10/05 19:07:03;;;;;;;3.00;2.40;;;;;;;;;;9960138;29;20087;-67
2022/10/05 19:12:08;;;;;;;3.47;2.47;;;;;;;;;;9959327;29;20325;-66
2022/10/05 19:17:17;;;;;;;3.92;2.13;;;;;;;;;;9959998;29;20099;-66
2022/10/05 19:22:19;;;;;;;3.28;2.42;;;;;;;;;;9959778;29;20053;-66
2022/10/05 19:27:25;;;;;;;2.60;2.30;;;;;;;;;;9946484;29;20061;-66
2022/10/05 19:32:31;;;;;;;4.53;2.22;;;;;;;;;;9972209;29;20080;-67
2022/10/05 19:37:36;;;;;;;2.60;2.15;;;;;;;;;;9959057;29;20107;-67
2022/10/05 19:42:46;;;;;;;4.18;2.45;;;;;;;;;;9944634;29;20075;-66
2022/10/05 19:47:51;;;;;;;5.72;2.47;;;;;;;;;;9959349;29;20531;-66
2022/10/05 19:52:50;;;;;;;4.30;2.50;;;;;;;;;;9958304;29;20056;-67
2022/10/05 19:57:52;;;;;;;4.53;2.20;;;;;;;;;;9963265;29;20542;-66
2022/10/05 20:02:50;;;;;;;3.08;2.58;;;;;;;;;;9966353;29;20534;-66
2022/10/05 20:07:50;;;;;;;3.08;2.15;;;;;;;;;;9965374;29;20091;-66
2022/10/05 20:12:50;;;;;;;2.65;2.05;;;;;;;;;;9966368;29;20112;-66
2022/10/05 20:23:22;;;;;;;4.88;1.85;;;;;;;;;;9954506;29;19958;-67
2022/10/05 20:28:29;;;;;;;3.50;2.50;;;;;;;;;;9965279;29;20080;-66
2022/10/05 20:33:29;;;;;;;7.45;1.90;;;;;;;;;;9978971;29;20095;-66
2022/10/05 20:38:34;;;;;;;2.33;1.80;;;;;;;;;;9949657;29;20103;-67
2022/10/05 20:43:39;;;;;;;2.42;1.80;;;;;;;;;;9965597;29;20080;-67
2022/10/05 20:48:39;;;;;;;1.63;1.45;;;;;;;;;;9948239;29;20091;-65
2022/10/05 20:53:38;;;;;;;1.92;1.60;;;;;;;;;;9965470;29;20052;-67
2022/10/05 20:58:36;;;;;;;2.78;1.83;;;;;;;;;;9965001;29;20084;-66
2022/10/05 21:03:35;;;;;;;1.67;1.58;;;;;;;;;;9964756;29;20088;-66
2022/10/05 21:08:35;;;;;;;2.08;1.27;;;;;;;;;;9964894;29;20056;-64
2022/10/05 21:13:34;;;;;;;3.47;2.17;;;;;;;;;;9964385;29;20087;-65
2022/10/05 21:18:33;;;;;;;7.15;2.40;;;;;;;;;;9962809;29;20088;-64
2022/10/05 21:23:31;;;;;;;2.75;2.17;;;;;;;;;;9963608;29;20135;-66
2022/10/05 21:28:30;;;;;;;2.13;1.70;;;;;;;;;;9964095;29;20084;-66
2022/10/05 21:33:31;;;;;;;3.05;2.17;;;;;;;;;;9964262;29;20052;-66
2022/10/05 21:38:29;;;;;;;5.85;1.95;;;;;;;;;;9963788;29;20080;-65
2022/10/05 21:43:28;;;;;;;1.73;1.63;;;;;;;;;;9964071;29;20083;-66
2022/10/05 21:48:27;;;;;;;3.78;2.05;;;;;;;;;;9963774;29;20060;-66
2022/10/05 21:53:29;;;;;;;4.22;2.03;;;;;;;;;;9963012;29;20515;-65
2022/10/05 21:58:28;;;;;;;2.13;1.67;;;;;;;;;;9962933;29;20088;-66
2022/10/05 22:03:27;;;;;;;2.20;1.92;;;;;;;;;;9963061;29;20060;-66
2022/10/05 22:08:28;;;;;;;2.95;2.10;;;;;;;;;;9962300;29;20056;-66
2022/10/05 22:13:27;;;;;;;4.57;2.15;;;;;;;;;;9962281;29;20063;-67
2022/10/05 22:18:25;;;;;;;3.08;1.77;;;;;;;;;;9961765;29;20088;-65
2022/10/05 22:23:24;;;;;;;2.08;1.88;;;;;;;;;;9960655;29;20064;-66
2022/10/05 22:28:24;;;;;;;4.90;2.20;;;;;;;;;;9961662;29;20503;-66
2022/10/05 22:33:23;;;;;;;2.75;2.28;;;;;;;;;;9960927;29;20064;-65
2022/10/05 22:38:21;;;;;;;2.00;1.80;;;;;;;;;;9961227;29;20083;-67
2022/10/05 22:43:20;;;;;;;3.72;2.25;;;;;;;;;;9943617;29;20052;-66
2022/10/05 22:48:19;;;;;;;2.33;2.13;;;;;;;;;;9960270;29;20087;-66
2022/10/05 22:53:18;;;;;;;3.95;2.33;;;;;;;;;;9960169;29;20091;-66
2022/10/05 22:58:16;;;;;;;2.67;2.40;;;;;;;;;;9960308;29;20088;-66
2022/10/05 23:03:14;;;;;;;4.35;2.45;;;;;;;;;;9960249;29;20502;-66
2022/10/05 23:08:14;;;;;;;3.05;2.13;;;;;;;;;;9959713;29;20438;-67
2022/10/05 23:13:13;;;;;;;5.18;2.40;;;;;;;;;;9959247;29;20084;-65
2022/10/05 23:18:11;;;;;;;3.03;2.35;;;;;;;;;;9959234;29;20084;-65
2022/10/05 23:23:09;;;;;;;3.03;2.22;;;;;;;;;;9959585;29;20057;-65
2022/10/05 23:28:09;;;;;;;4.35;2.72;;;;;;;;;;9957677;29;20084;-65
2022/10/05 23:33:07;;;;;;;4.55;2.60;;;;;;;;;;9958810;29;20084;-65
2022/10/05 23:38:06;;;;;;;3.13;2.30;;;;;;;;;;9959515;29;20875;-65
2022/10/05 23:43:04;;;;;;;4.22;2.65;;;;;;;;;;9959699;29;20053;-65
2022/10/05 23:48:04;;;;;;;2.97;2.30;;;;;;;;;;9959093;29;20077;-67
2022/10/05 23:53:02;;;;;;;2.88;2.35;;;;;;;;;;9958748;29;20487;-66
2022/10/05 23:58:00;;;;;;;3.00;2.08;;;;;;;;;;9959415;29;20096;-66
